createdAt,value
2022-11-20T00:01:18.108Z,97052.46885163012
2022-11-20T00:04:16.425Z,97057.51832355018
2022-11-20T00:07:17.020Z,97057.88683680721
2022-11-20T00:11:18.928Z,97052.7886554939
2022-11-20T00:14:17.047Z,97055.0484104556
2022-11-20T00:17:16.886Z,97058.16209950577
2022-11-20T00:21:18.969Z,97063.01063303028
2022-11-20T00:24:17.408Z,97059.36807438855
2022-11-20T00:27:17.281Z,97062.0824066292
2022-11-20T00:31:17.060Z,97062.56631170707
2022-11-20T00:34:16.396Z,97052.91253909122
2022-11-20T00:37:19.475Z,97062.78046630029
2022-11-20T00:41:16.350Z,97056.78019620254
2022-11-20T00:44:17.368Z,97057.37777214397
2022-11-20T00:47:16.880Z,97058.793977066
2022-11-20T00:51:19.694Z,97056.86466482547
2022-11-20T00:54:16.882Z,97052.10960922884
2022-11-20T00:57:16.890Z,97053.53187246753
2022-11-20T01:01:18.771Z,97062.21631862571
2022-11-20T01:04:17.440Z,97058.56505781034
2022-11-20T01:07:17.012Z,97056.38014665915
2022-11-20T01:11:19.937Z,97066.32699475069
2022-11-20T01:14:19.698Z,97067.00431422351
2022-11-20T01:17:16.739Z,97072.52809172163
2022-11-20T01:21:20.044Z,97073.07122564106
2022-11-20T01:24:20.054Z,97077.96324243303
2022-11-20T01:27:17.471Z,97080.73388840452
2022-11-20T01:31:22.345Z,97086.40291235589
2022-11-20T01:34:18.831Z,97088.26696511784
2022-11-20T01:37:16.837Z,97096.15366692153
2022-11-20T01:43:22.008Z,97107.2672997042
2022-11-20T01:44:19.801Z,97096.96257464548
2022-11-20T01:47:21.917Z,97100.92750258918
2022-11-20T01:51:25.431Z,97102.62860981145
2022-11-20T01:54:23.941Z,97096.21217282455
2022-11-20T01:57:20.843Z,97101.28987501244
2022-11-20T02:01:16.823Z,97100.47712884657
2022-11-20T02:04:17.237Z,97100.03161459627
2022-11-20T02:07:17.880Z,97096.17580733895
2022-11-20T02:11:16.978Z,97091.11206257618
2022-11-20T02:14:16.843Z,97086.50600303043
2022-11-20T02:17:17.292Z,97089.66465369039
2022-11-20T02:21:28.301Z,97087.9462062409
2022-11-20T02:24:19.208Z,97085.484673121
2022-11-20T02:27:18.260Z,97095.27774614387
2022-11-20T02:31:16.229Z,97090.70047773284
2022-11-20T02:34:16.251Z,97088.2290903915
2022-11-20T02:37:16.975Z,97087.56517312153
2022-11-20T02:41:16.633Z,97084.95593853615
2022-11-20T02:44:16.423Z,97089.90883713987
2022-11-20T02:47:17.096Z,97090.03664327505
2022-11-20T02:51:16.701Z,97078.78424653826
2022-11-20T02:54:16.958Z,97082.06100325109
2022-11-20T02:57:16.857Z,97081.60090391946
2022-11-20T03:01:22.219Z,97084.42792121503
2022-11-20T03:04:17.023Z,97087.10343657818
2022-11-20T03:07:16.731Z,97089.9477626354
2022-11-20T03:11:15.978Z,97089.80194963694
2022-11-20T03:14:16.435Z,97079.45617536252
2022-11-20T03:17:16.894Z,97078.99546674841
2022-11-20T03:21:16.691Z,97080.96100599424
2022-11-20T03:24:17.126Z,97080.86631220637
2022-11-20T03:27:16.822Z,97085.6687083189
2022-11-20T03:31:18.060Z,97089.77772432948
2022-11-20T03:34:16.360Z,97084.35431448118
2022-11-20T03:37:19.751Z,97085.36949280062
2022-11-20T03:41:19.441Z,97069.69463335643
2022-11-20T03:44:16.693Z,97072.99898160274
2022-11-20T03:47:16.673Z,97071.17092910518
2022-11-20T03:51:18.818Z,97074.1319103628
2022-11-20T03:54:16.837Z,97072.77301479992
2022-11-20T03:57:19.163Z,97077.0354956146
2022-11-20T04:01:19.263Z,97077.09955074
2022-11-20T04:04:16.639Z,97087.23341254596
2022-11-20T04:07:17.264Z,97080.49776654267
2022-11-20T04:11:19.028Z,97082.95477772356
2022-11-20T04:14:17.326Z,97082.86336671656
2022-11-20T04:17:17.452Z,97084.78710990588
2022-11-20T04:21:16.177Z,97089.74844658739
2022-11-20T04:24:17.494Z,97096.32389720228
2022-11-20T04:27:16.696Z,97096.6837112205
2022-11-20T04:31:25.192Z,97101.53694315122
2022-11-20T04:34:16.830Z,97098.77342452065
2022-11-20T04:37:17.272Z,97098.6811511219
2022-11-20T04:41:18.384Z,97102.07252730228
2022-11-20T04:44:16.651Z,97102.79569580918
2022-11-20T04:47:16.439Z,97101.60383838079
2022-11-20T04:51:16.401Z,97102.76530870677
2022-11-20T04:54:17.462Z,97096.77520278128
2022-11-20T04:57:16.940Z,97094.72578066848
2022-11-20T05:01:20.352Z,97096.03285474941
2022-11-20T05:04:17.320Z,97104.5816107499
2022-11-20T05:07:17.944Z,97108.86499831779
2022-11-20T05:11:18.565Z,97113.1946052896
2022-11-20T05:14:17.561Z,97117.63291237068
2022-11-20T05:17:17.421Z,97118.66797968799
2022-11-20T05:21:16.792Z,97124.83608182822
2022-11-20T05:24:16.601Z,97124.45579191981
2022-11-20T05:27:16.393Z,97130.19224251372
2022-11-20T05:31:24.968Z,97129.38732890204
2022-11-20T05:34:16.963Z,97128.8120423288
2022-11-20T05:37:17.379Z,97128.89099119327
2022-11-20T05:41:19.000Z,97132.09104499476
2022-11-20T05:44:16.681Z,97134.11129767227
2022-11-20T05:47:17.290Z,97134.35245849413
2022-11-20T05:51:18.434Z,97140.85324446831
2022-11-20T05:54:16.927Z,97135.00291039034
2022-11-20T05:57:16.950Z,97136.12339276244
2022-11-20T06:01:19.239Z,97131.6555177692
2022-11-20T06:04:16.433Z,97128.74311939243
2022-11-20T06:07:16.334Z,97123.28419877031
2022-11-20T06:11:17.792Z,97126.15494518427
2022-11-20T06:14:17.154Z,97127.79713218566
2022-11-20T06:17:16.931Z,97131.10627235398
2022-11-20T06:21:18.629Z,97138.04697814658
2022-11-20T06:24:17.229Z,97146.23292157786
2022-11-20T06:27:16.636Z,97146.24742468499
2022-11-20T06:31:19.003Z,97150.79501034887
2022-11-20T06:34:17.485Z,97152.18855276049
2022-11-20T06:37:17.670Z,97157.05157494797
2022-11-20T06:41:19.339Z,97155.28892033869
2022-11-20T06:44:17.382Z,97163.26210844037
2022-11-20T06:47:16.963Z,97170.35961354082
2022-11-20T06:51:16.450Z,97176.54798927609
2022-11-20T06:54:16.311Z,97179.69537924354
2022-11-20T06:57:16.267Z,97182.9735386983
2022-11-20T07:01:16.787Z,97188.56146412207
2022-11-20T07:04:17.263Z,97193.68619771196
2022-11-20T07:07:17.261Z,97189.42622057805
2022-11-20T07:11:16.618Z,97189.56122945914
2022-11-20T07:14:17.220Z,97197.97744473707
2022-11-20T07:17:17.133Z,97196.63009905854
2022-11-20T07:21:17.530Z,97201.52175511778
2022-11-20T07:24:17.091Z,97204.00175998807
2022-11-20T07:27:17.132Z,97199.07759781288
2022-11-20T07:31:20.169Z,97204.92024980058
2022-11-20T07:34:16.235Z,97207.41916959378
2022-11-20T07:37:16.298Z,97206.56991982936
2022-11-20T07:41:16.503Z,97214.98727658154
2022-11-20T07:44:16.066Z,97216.60913964931
2022-11-20T07:47:16.380Z,97220.0726271179
2022-11-20T07:51:16.869Z,97224.86967248005
2022-11-20T07:54:18.025Z,97231.7880867858
2022-11-20T07:57:17.378Z,97244.3095884583
2022-11-20T08:01:16.088Z,97246.97101434809
2022-11-20T08:04:17.316Z,97254.06161189973
2022-11-20T08:07:16.535Z,97259.30191377237
2022-11-20T08:21:16.452Z,97276.25665820349
2022-11-20T08:24:17.103Z,97279.19892396173
2022-11-20T08:27:16.958Z,97279.24197523222
2022-11-20T08:31:16.344Z,97277.00527893788
2022-11-20T08:34:19.030Z,97279.87953235414
2022-11-20T08:37:16.692Z,97275.82473756254
2022-11-20T08:41:35.076Z,97267.89407776584
2022-11-20T08:44:17.023Z,97263.456171104
2022-11-20T08:47:17.124Z,97265.57927265506
2022-11-20T08:51:17.117Z,97254.13343599979
2022-11-20T08:54:16.420Z,97250.09466457836
2022-11-20T08:57:16.718Z,97252.06351813863
2022-11-20T09:01:16.929Z,97247.80198946118
2022-11-20T09:04:16.636Z,97252.15821173589
2022-11-20T09:07:16.653Z,97257.07731921453
2022-11-20T09:11:16.563Z,97259.74731171626
2022-11-20T09:14:17.082Z,97261.48104581884
2022-11-20T09:17:16.697Z,97262.65563718604
2022-11-20T09:21:16.568Z,97264.8274767017
2022-11-20T09:24:17.471Z,97271.12439798223
2022-11-20T09:27:29.859Z,97276.50408195218
2022-11-20T09:31:22.347Z,97282.9631868747
2022-11-20T09:34:16.593Z,97292.73843483109
2022-11-20T09:37:16.970Z,97296.30079832708
2022-11-20T09:41:36.641Z,97296.83137360658
2022-11-20T09:44:34.945Z,97297.42208456718
2022-11-20T09:47:27.384Z,97289.98935092955
2022-11-20T09:51:48.254Z,97285.83049980311
2022-11-20T09:54:22.674Z,97276.50157978758
2022-11-20T09:57:23.437Z,97274.5999088358
2022-11-20T10:01:19.026Z,97264.24059087636
2022-11-20T10:04:19.979Z,97262.43449623934
2022-11-20T10:07:32.248Z,97260.13803634833
2022-11-20T10:11:30.701Z,97247.56558190807
2022-11-20T10:14:26.400Z,97248.03375685359
2022-11-20T10:17:29.190Z,97245.01870021025
2022-11-20T10:21:27.432Z,97254.31110169411
2022-11-20T10:25:25.113Z,97262.05926274892
2022-11-20T10:28:13.423Z,97264.16279000437
2022-11-20T10:31:34.670Z,97253.27015952587
2022-11-20T10:34:24.034Z,97248.83658561607
2022-11-20T10:37:19.199Z,97244.18061600724
2022-11-20T10:41:39.036Z,97231.89035499717
2022-11-20T10:44:20.732Z,97222.84172035479
2022-11-20T10:47:18.479Z,97226.12214679182
2022-11-20T10:51:34.821Z,97221.8269008657
2022-11-20T10:54:23.665Z,97217.26384565143
2022-11-20T10:57:32.922Z,97215.8016840274
2022-11-20T11:01:18.680Z,97232.24961959272
2022-11-20T11:04:32.837Z,97238.66465120672
2022-11-20T11:07:24.002Z,97231.72955168325
2022-11-20T11:11:22.764Z,97231.27116075683
2022-11-20T11:14:16.780Z,97232.84926845373
2022-11-20T11:17:23.965Z,97229.89210350117
2022-11-20T11:21:23.313Z,97230.54849267827
2022-11-20T11:24:41.036Z,97227.0239989048
2022-11-20T11:27:19.328Z,97221.0599546843
2022-11-20T11:31:38.664Z,97221.53013362159
2022-11-20T11:34:18.279Z,97220.85345512633
2022-11-20T11:37:21.400Z,97216.24533443626
2022-11-20T11:41:20.236Z,97213.36837194301
2022-11-20T11:45:22.820Z,97214.29769439551
2022-11-20T11:47:26.671Z,97220.35259401592
2022-11-20T11:51:20.577Z,97226.65746866837
2022-11-20T11:54:20.875Z,97223.83867594934
2022-11-20T11:57:23.847Z,97228.76404076951
2022-11-20T12:01:28.312Z,97233.73826657857
2022-11-20T12:04:26.093Z,97236.24404517467
2022-11-20T12:07:45.448Z,97233.71327128098
2022-11-20T12:11:24.619Z,97219.92663625049
2022-11-20T12:14:21.778Z,97217.01796557054
2022-11-20T12:17:36.764Z,97215.9613514616
2022-11-20T12:21:21.225Z,97222.99882644958
2022-11-20T12:25:12.072Z,97218.07006987873
2022-11-20T12:31:28.881Z,97221.4455192379
2022-11-20T12:34:32.927Z,97215.09257222853
2022-11-20T12:37:33.834Z,97210.14757631646
2022-11-20T12:45:26.118Z,97203.04953965537
2022-11-20T12:47:25.531Z,97198.78636449104
2022-11-20T12:51:30.665Z,97198.91028493382
2022-11-20T12:54:37.828Z,97196.9636932067
2022-11-20T12:57:24.767Z,97191.9525003612
2022-11-20T13:01:49.722Z,97187.50066955334
2022-11-20T13:04:34.165Z,97179.58018408647
2022-11-20T13:07:17.708Z,97177.17130637905
2022-11-20T13:11:22.816Z,97181.81588197045
2022-11-20T13:14:31.732Z,97176.66332942779
2022-11-20T13:17:21.613Z,97171.93245075806
2022-11-20T13:21:19.293Z,97162.20587924823
2022-11-20T13:24:24.823Z,97157.23938200744
2022-11-20T13:27:22.153Z,97154.64979644644
2022-11-20T13:31:30.557Z,97141.56502462534
2022-11-20T13:34:25.698Z,97132.798878917
2022-11-20T13:37:26.826Z,97130.25673281316
2022-11-20T13:41:36.639Z,97135.54292778358
2022-11-20T13:44:34.132Z,97131.83292966595
2022-11-20T13:47:21.779Z,97132.96038711842
2022-11-20T13:51:31.720Z,97136.26447643475
2022-11-20T13:54:40.292Z,97140.64193430732
2022-11-20T13:57:50.006Z,97130.21886588082
2022-11-20T14:01:20.237Z,97130.1528989373
2022-11-20T14:04:24.101Z,97122.99954581217
2022-11-20T14:07:21.706Z,97123.6451080834
2022-11-20T14:11:19.027Z,97125.63804827663
2022-11-20T14:14:18.569Z,97131.93251228699
2022-11-20T14:17:20.064Z,97134.1351755326
2022-11-20T14:21:23.209Z,97137.675762833
2022-11-20T14:24:20.977Z,97146.20781011223
2022-11-20T14:27:19.844Z,97160.12823912819
2022-11-20T14:31:24.196Z,97165.62718702905
2022-11-20T14:34:20.687Z,97164.32925659166
2022-11-20T14:37:22.103Z,97167.36823315344
2022-11-20T14:41:19.067Z,97179.73399683386
2022-11-20T14:44:16.656Z,97183.73284167374
2022-11-20T14:47:21.155Z,97184.56805189898
2022-11-20T14:51:34.684Z,97185.99670476107
2022-11-20T14:54:18.888Z,97186.39712169245
2022-11-20T14:57:26.636Z,97189.93349424614
2022-11-20T15:01:26.518Z,97195.75154860705
2022-11-20T15:04:17.017Z,97194.0070394366
2022-11-20T15:07:25.626Z,97201.10413694441
2022-11-20T15:11:19.621Z,97216.10497429324
2022-11-20T15:14:18.837Z,97212.0787426486
2022-11-20T15:17:17.283Z,97213.74898237894
2022-11-20T15:21:17.985Z,97210.84684261096
2022-11-20T15:24:17.044Z,97211.66408970674
2022-11-20T15:27:16.813Z,97219.1441690905
2022-11-20T15:31:20.473Z,97224.24207613907
2022-11-20T15:34:19.401Z,97228.71339282717
2022-11-20T15:37:16.754Z,97229.04106535533
2022-11-20T15:41:15.832Z,97236.77030830373
2022-11-20T15:44:16.121Z,97237.63728093724
2022-11-20T15:47:17.842Z,97241.84055425065
2022-11-20T15:51:25.045Z,97241.4817448334
2022-11-20T15:54:22.486Z,97245.36433387223
2022-11-20T15:57:16.694Z,97239.61445320763
2022-11-20T16:01:18.900Z,97243.97715879927
2022-11-20T16:04:17.279Z,97246.61044426083
2022-11-20T16:07:16.415Z,97253.88596845171
2022-11-20T16:11:17.810Z,97261.78887970907
2022-11-20T16:21:16.414Z,97264.24069870063
2022-11-20T16:24:16.395Z,97255.93829967352
2022-11-20T16:27:16.793Z,97256.97613463597
2022-11-20T17:11:20.449Z,97287.63885438793
2022-11-20T17:14:18.730Z,97292.04891853244
2022-11-20T17:17:16.900Z,97307.60799120518
2022-11-20T17:21:17.219Z,97303.89895989947
2022-11-20T17:24:17.127Z,97302.02852744664
2022-11-20T17:27:16.304Z,97308.21747293847
2022-11-20T17:31:18.848Z,97314.74424855718
2022-11-20T17:34:17.062Z,97317.91335166754
2022-11-20T17:37:16.072Z,97314.98431148496
2022-11-20T17:41:18.726Z,97318.55495946623
2022-11-20T17:44:16.168Z,97318.54251060825
2022-11-20T17:47:17.380Z,97318.00068066115
2022-11-20T17:51:18.840Z,97324.2115606316
2022-11-20T17:54:16.837Z,97330.57332040819
2022-11-20T17:58:21.635Z,97331.36189171026
2022-11-20T18:01:16.921Z,97339.09341333725
2022-11-20T18:04:17.067Z,97334.98789454828
2022-11-20T18:07:17.142Z,97343.29146259945
2022-11-20T18:11:23.984Z,97345.8161321177
2022-11-20T18:14:28.775Z,97350.38639475689
2022-11-20T18:17:20.554Z,97354.18800393412
2022-11-20T18:21:16.060Z,97368.66917750305
2022-11-20T18:24:19.442Z,97372.11702981699
2022-11-20T18:27:18.363Z,97376.46826950555
2022-11-20T18:31:16.809Z,97388.70721331914
2022-11-20T18:34:16.756Z,97386.2789342048
2022-11-20T18:37:17.195Z,97399.08292856351
2022-11-20T18:44:52.157Z,97405.4297452472
2022-11-20T18:47:22.608Z,97399.67095184019
2022-11-20T18:51:17.949Z,97395.29102393896
2022-11-20T18:54:17.231Z,97406.4408527403
2022-11-20T18:57:18.221Z,97406.74627278627
2022-11-20T19:01:15.919Z,97408.11830673319
2022-11-20T19:04:17.370Z,97418.65103672545
2022-11-20T19:07:16.896Z,97422.22289068186
2022-11-20T19:11:16.368Z,97428.38265774486
2022-11-20T19:14:17.084Z,97442.98421890129
2022-11-20T19:17:18.401Z,97446.72444268917
2022-11-20T19:21:18.696Z,97453.25527687737
2022-11-20T19:24:16.961Z,97455.56751836473
2022-11-20T19:27:16.720Z,97458.671658459
2022-11-20T19:31:24.267Z,97463.28327577922
2022-11-20T19:34:20.304Z,97462.38780339825
2022-11-20T19:37:21.470Z,97471.44454610892
2022-11-20T19:41:18.611Z,97471.54889824976
2022-11-20T19:44:22.747Z,97478.69226408735
2022-11-20T19:47:17.062Z,97478.26937457465
2022-11-20T19:51:18.590Z,97481.4868723273
2022-11-20T19:54:17.064Z,97479.56980131703
2022-11-20T19:57:16.793Z,97474.86962632637
2022-11-20T20:01:19.287Z,97482.4217457928
2022-11-20T20:04:16.454Z,97478.32639553068
2022-11-20T20:07:18.821Z,97481.19669511708
2022-11-20T20:11:18.338Z,97493.7657338761
2022-11-20T20:14:16.847Z,97507.93938780663
2022-11-20T20:17:17.244Z,97509.50976162878
2022-11-20T20:21:18.647Z,97508.9530888838
2022-11-20T20:24:17.739Z,97506.26875448214
2022-11-20T20:27:18.357Z,97512.63530272513
2022-11-20T20:31:18.655Z,97507.6762807005
2022-11-20T20:34:16.603Z,97509.70737942455
2022-11-20T20:37:16.108Z,97517.04496767087
2022-11-20T20:41:19.787Z,97520.46385049587
2022-11-20T20:45:22.544Z,97523.77703212967
2022-11-20T20:47:17.592Z,97528.4059981825
2022-11-20T20:51:17.668Z,97536.14324315728
2022-11-20T20:54:16.444Z,97542.49572885939
2022-11-20T20:57:16.285Z,97538.58533702581
2022-11-20T21:01:20.732Z,97532.81775101622
2022-11-20T21:04:18.408Z,97538.99111979651
2022-11-20T21:07:18.237Z,97538.83072083152
2022-11-20T21:11:19.588Z,97546.28346575101
2022-11-20T21:14:16.931Z,97543.27985058758
2022-11-20T21:17:16.700Z,97554.56950693928
2022-11-20T21:22:21.187Z,97562.22872711986
2022-11-20T21:24:16.894Z,97561.25920840798
2022-11-20T21:27:16.661Z,97565.06458729172
2022-11-20T21:31:18.388Z,97566.74442474716
2022-11-20T21:34:16.780Z,97574.75484991772
2022-11-20T21:37:16.561Z,97570.94022754849
2022-11-20T21:41:16.062Z,97574.45086972752
2022-11-20T21:44:30.526Z,97572.00381036288
2022-11-20T21:47:16.534Z,97563.76357494884
2022-11-20T21:51:19.031Z,97562.32997735692
2022-11-20T21:54:18.241Z,97559.17635405193
2022-11-20T21:57:16.825Z,97555.19190095761
2022-11-20T22:01:21.045Z,97550.39548434675
2022-11-20T22:04:19.024Z,97545.49903303987
2022-11-20T22:07:16.662Z,97545.13932428515
2022-11-20T22:11:20.599Z,97535.01074811319
2022-11-20T22:14:24.755Z,97541.63912800385
2022-11-20T22:17:16.331Z,97546.59891587611
2022-11-20T22:21:19.287Z,97542.4753425634
2022-11-20T22:24:19.975Z,97533.99389459776
2022-11-20T22:27:16.691Z,97530.46681255245
2022-11-20T22:31:17.203Z,97517.71535119454
2022-11-20T22:34:16.765Z,97514.21708072891
2022-11-20T22:37:17.077Z,97513.50423755388
2022-11-20T22:41:18.429Z,97524.69178667865
2022-11-20T22:44:17.298Z,97533.28513125538
2022-11-20T22:47:16.771Z,97524.97826018756
2022-11-20T22:51:19.351Z,97515.32029475635
2022-11-20T22:54:23.358Z,97515.89541558715
2022-11-20T22:57:16.175Z,97513.72240169942
2022-11-20T23:01:18.666Z,97517.49229417821
2022-11-20T23:04:16.631Z,97523.6435614356
2022-11-20T23:07:18.314Z,97519.00440409404
2022-11-20T23:11:19.151Z,97525.56666782552
2022-11-20T23:14:17.157Z,97534.08061914516
2022-11-20T23:17:44.678Z,97534.9271575561
2022-11-20T23:21:18.356Z,97529.05802575768
2022-11-20T23:24:17.757Z,97526.65836945678
2022-11-20T23:27:19.650Z,97530.22236873642
2022-11-20T23:31:16.672Z,97537.72025748904
2022-11-20T23:34:16.475Z,97538.24779093919
2022-11-20T23:37:16.380Z,97538.54355996633
2022-11-20T23:41:16.270Z,97550.20925138093
2022-11-20T23:44:16.272Z,97551.81925379962
2022-11-20T23:47:16.991Z,97554.69673202539
2022-11-20T23:51:17.746Z,97546.95996475287
2022-11-20T23:54:18.115Z,97554.73210022929
2022-11-20T23:57:17.524Z,97553.10780760241
